Fairfield, Montana
Current Conditions -  °F | °C
As of 1:53 PM on Saturday 22 Nov 2014 (Local Time) from KGTF Reporting Station
Scattered Clouds Scattered Clouds  
Wind Chill: 33°   Ceiling: Unl
Heat Index: 44°   Visibility: 10mi
Dew Point: 17°   Wind: 33mph
Humidity: 34%   Direction: 260°W
Pressure: 29.35"   Gusts: 47mph
Location:  47.61°N, 111.98°W
Report Text: KGTF 222053Z 26029G41KT 10SM FEW070 SCT085 07/M08 A2935 RMK AO2 PK WND 27044/2037 SLP949 T00671083 53014
Loading
Personal Weather Stations






























Interactive Weather Map New forecast layout! Learn more

10-Day Weather Forecast

Advertisements
Track Severe Weather on mobile